Decoded Metar for KEZS ( in _UNIDENTIFIED) (IATA:N/A) | Meteo·Mobile Aviation Weather
aviador You're here:

KEZS Decoded Metar

in _UNIDENTIFIED
Report Time2018-12-16 09:55:00
UTC Time2018-12-16 10:02:03
Flight Rules vfr VFR
WindCalm
Visibility9999 m
Phenomena:N/A
Clouds:N/A
Expected CloudBase > 400 ft AGL from Temp-Dew spread
CeilingNone
Temp-2°C (ISA -15)
Dew Point-3°C (93% RH)
AAT-4.4°C
QNH1017 hPa
Density Alt-1,138 ft
Elevation814 ft
Report Wrong Elevation
Raw Report
KEZS 160955Z AUTO 00000KT 7SM CLR M02/M03 A3004 RMK AO2
T10211032=

Extra information for KEZS:More info

Metar Taf Metar & Taf Last 4 Metars F.Rules Stats Wind Profile Meteogram Temp Stats Metar ALERT Operation Metar Decoded Social comments